sensor_id;sensor_type;location;lat;lon;timestamp;pressure;altitude;pressure_sealevel;temperature;humidity
49063;BME280;34876;51.464;-0.150;2024-02-14T00:00:41;101035.91;;;18.45;44.96
49063;BME280;34876;51.464;-0.150;2024-02-14T00:03:11;101043.57;;;18.30;45.54
49063;BME280;34876;51.464;-0.150;2024-02-14T00:05:41;101042.98;;;18.26;45.57
49063;BME280;34876;51.464;-0.150;2024-02-14T00:08:09;101049.11;;;18.34;45.25
49063;BME280;34876;51.464;-0.150;2024-02-14T00:10:39;101043.49;;;18.43;45.06
49063;BME280;34876;51.464;-0.150;2024-02-14T00:13:13;101045.10;;;18.22;46.92
49063;BME280;34876;51.464;-0.150;2024-02-14T00:15:43;101042.05;;;18.42;45.13
49063;BME280;34876;51.464;-0.150;2024-02-14T00:18:18;101033.64;;;18.48;44.97
49063;BME280;34876;51.464;-0.150;2024-02-14T00:20:47;101031.82;;;18.50;44.91
49063;BME280;34876;51.464;-0.150;2024-02-14T00:23:15;101043.74;;;18.43;45.05
49063;BME280;34876;51.464;-0.150;2024-02-14T00:25:44;101043.64;;;18.50;44.88
49063;BME280;34876;51.464;-0.150;2024-02-14T00:28:14;101047.56;;;18.50;44.88
49063;BME280;34876;51.464;-0.150;2024-02-14T00:30:44;101055.51;;;18.48;45.01
49063;BME280;34876;51.464;-0.150;2024-02-14T00:33:14;101061.03;;;18.50;44.84
49063;BME280;34876;51.464;-0.150;2024-02-14T00:35:43;101056.70;;;18.50;44.95
49063;BME280;34876;51.464;-0.150;2024-02-14T00:38:11;101057.43;;;18.49;44.95
49063;BME280;34876;51.464;-0.150;2024-02-14T00:40:41;101058.53;;;18.45;45.18
49063;BME280;34876;51.464;-0.150;2024-02-14T00:43:17;101053.24;;;18.50;45.01
49063;BME280;34876;51.464;-0.150;2024-02-14T00:45:47;101049.50;;;18.27;45.87
49063;BME280;34876;51.464;-0.150;2024-02-14T00:48:16;101053.89;;;18.34;45.43
49063;BME280;34876;51.464;-0.150;2024-02-14T00:50:45;101047.08;;;18.43;45.37
49063;BME280;34876;51.464;-0.150;2024-02-14T00:53:15;101051.44;;;18.40;45.37
49063;BME280;34876;51.464;-0.150;2024-02-14T00:55:46;101052.62;;;18.52;44.97
49063;BME280;34876;51.464;-0.150;2024-02-14T00:58:19;101045.77;;;18.52;45.01
49063;BME280;34876;51.464;-0.150;2024-02-14T01:03:38;101055.46;;;18.36;45.53
49063;BME280;34876;51.464;-0.150;2024-02-14T01:06:08;101052.86;;;18.40;45.51
49063;BME280;34876;51.464;-0.150;2024-02-14T01:08:36;101048.95;;;18.56;45.02
49063;BME280;34876;51.464;-0.150;2024-02-14T01:11:06;101047.04;;;18.55;45.02
49063;BME280;34876;51.464;-0.150;2024-02-14T01:13:35;101040.51;;;18.55;45.00
49063;BME280;34876;51.464;-0.150;2024-02-14T01:16:05;101036.44;;;18.40;45.53
49063;BME280;34876;51.464;-0.150;2024-02-14T01:18:35;101032.41;;;18.53;45.13
49063;BME280;34876;51.464;-0.150;2024-02-14T01:21:04;101033.76;;;18.54;45.11
49063;BME280;34876;51.464;-0.150;2024-02-14T01:23:34;101041.54;;;18.33;45.95
49063;BME280;34876;51.464;-0.150;2024-02-14T01:26:03;101043.76;;;18.38;45.88
49063;BME280;34876;51.464;-0.150;2024-02-14T01:28:33;101043.79;;;18.48;45.44
49063;BME280;34876;51.464;-0.150;2024-02-14T01:31:02;101041.08;;;18.51;45.16
49063;BME280;34876;51.464;-0.150;2024-02-14T01:33:31;101044.64;;;18.37;45.77
49063;BME280;34876;51.464;-0.150;2024-02-14T01:36:01;101038.01;;;18.38;46.00
49063;BME280;34876;51.464;-0.150;2024-02-14T01:38:35;101032.96;;;18.49;45.47
49063;BME280;34876;51.464;-0.150;2024-02-14T01:41:05;101055.91;;;18.29;46.03
49063;BME280;34876;51.464;-0.150;2024-02-14T01:43:35;101051.94;;;18.50;45.52
49063;BME280;34876;51.464;-0.150;2024-02-14T01:46:05;101053.26;;;18.49;45.51
49063;BME280;34876;51.464;-0.150;2024-02-14T01:48:35;101054.73;;;18.13;46.70
49063;BME280;34876;51.464;-0.150;2024-02-14T01:51:05;101060.61;;;18.38;46.02
49063;BME280;34876;51.464;-0.150;2024-02-14T01:53:35;101059.84;;;18.35;47.46
49063;BME280;34876;51.464;-0.150;2024-02-14T01:56:06;101060.30;;;18.23;46.21
49063;BME280;34876;51.464;-0.150;2024-02-14T01:58:36;101059.39;;;18.26;49.49
49063;BME280;34876;51.464;-0.150;2024-02-14T02:01:06;101052.72;;;18.19;46.52
49063;BME280;34876;51.464;-0.150;2024-02-14T02:03:35;101057.23;;;18.39;45.99
49063;BME280;34876;51.464;-0.150;2024-02-14T02:06:05;101054.97;;;18.29;46.25
49063;BME280;34876;51.464;-0.150;2024-02-14T02:08:35;101056.58;;;18.51;45.55
49063;BME280;34876;51.464;-0.150;2024-02-14T02:11:04;101055.30;;;18.54;45.50
49063;BME280;34876;51.464;-0.150;2024-02-14T02:13:33;101049.10;;;18.57;45.35
49063;BME280;34876;51.464;-0.150;2024-02-14T02:16:03;101051.17;;;18.55;45.30
49063;BME280;34876;51.464;-0.150;2024-02-14T02:18:33;101056.83;;;18.42;45.66
49063;BME280;34876;51.464;-0.150;2024-02-14T02:21:08;101056.92;;;18.54;45.33
49063;BME280;34876;51.464;-0.150;2024-02-14T02:23:38;101049.18;;;18.57;45.17
49063;BME280;34876;51.464;-0.150;2024-02-14T02:26:08;101055.56;;;18.51;45.41
49063;BME280;34876;51.464;-0.150;2024-02-14T02:28:39;101050.52;;;18.57;45.20
49063;BME280;34876;51.464;-0.150;2024-02-14T02:31:08;101054.65;;;18.60;45.19
49063;BME280;34876;51.464;-0.150;2024-02-14T02:33:37;101066.97;;;18.39;45.83
49063;BME280;34876;51.464;-0.150;2024-02-14T02:36:06;101065.80;;;18.56;45.33
49063;BME280;34876;51.464;-0.150;2024-02-14T02:38:36;101067.23;;;18.43;49.32
49063;BME280;34876;51.464;-0.150;2024-02-14T02:41:06;101070.30;;;18.50;45.48
49063;BME280;34876;51.464;-0.150;2024-02-14T02:43:36;101070.32;;;18.52;45.57
49063;BME280;34876;51.464;-0.150;2024-02-14T02:46:05;101069.16;;;18.59;45.33
49063;BME280;34876;51.464;-0.150;2024-02-14T02:48:35;101072.24;;;18.60;45.26
49063;BME280;34876;51.464;-0.150;2024-02-14T02:51:04;101070.96;;;18.62;45.24
49063;BME280;34876;51.464;-0.150;2024-02-14T02:53:34;101071.28;;;18.54;45.37
49063;BME280;34876;51.464;-0.150;2024-02-14T02:56:04;101073.33;;;18.60;45.19
49063;BME280;34876;51.464;-0.150;2024-02-14T02:58:34;101069.74;;;18.55;45.33
49063;BME280;34876;51.464;-0.150;2024-02-14T03:01:08;101066.62;;;18.54;45.49
49063;BME280;34876;51.464;-0.150;2024-02-14T03:03:37;101059.99;;;18.59;45.35
49063;BME280;34876;51.464;-0.150;2024-02-14T03:06:07;101058.46;;;18.53;49.26
49063;BME280;34876;51.464;-0.150;2024-02-14T03:08:36;101061.75;;;18.50;45.66
49063;BME280;34876;51.464;-0.150;2024-02-14T03:11:07;101058.44;;;18.58;45.33
49063;BME280;34876;51.464;-0.150;2024-02-14T03:13:37;101068.22;;;18.33;46.18
49063;BME280;34876;51.464;-0.150;2024-02-14T03:16:07;101066.26;;;18.08;47.02
49063;BME280;34876;51.464;-0.150;2024-02-14T03:18:37;101064.69;;;18.37;47.85
49063;BME280;34876;51.464;-0.150;2024-02-14T03:21:07;101061.54;;;18.29;46.49
49063;BME280;34876;51.464;-0.150;2024-02-14T03:23:36;101051.92;;;18.44;45.90
49063;BME280;34876;51.464;-0.150;2024-02-14T03:26:05;101052.94;;;18.37;46.21
49063;BME280;34876;51.464;-0.150;2024-02-14T03:28:34;101049.04;;;18.36;46.35
49063;BME280;34876;51.464;-0.150;2024-02-14T03:31:04;101043.61;;;18.55;45.80
49063;BME280;34876;51.464;-0.150;2024-02-14T03:33:34;101055.55;;;18.49;45.84
49063;BME280;34876;51.464;-0.150;2024-02-14T03:36:04;101045.82;;;18.59;45.48
49063;BME280;34876;51.464;-0.150;2024-02-14T03:38:35;101039.95;;;18.60;45.63
49063;BME280;34876;51.464;-0.150;2024-02-14T03:41:04;101036.15;;;18.51;45.80
49063;BME280;34876;51.464;-0.150;2024-02-14T03:43:33;101039.61;;;18.57;45.74
49063;BME280;34876;51.464;-0.150;2024-02-14T03:46:08;101036.71;;;18.50;45.94
49063;BME280;34876;51.464;-0.150;2024-02-14T03:48:37;101032.84;;;18.58;45.68
49063;BME280;34876;51.464;-0.150;2024-02-14T03:51:06;101041.59;;;18.45;46.26
49063;BME280;34876;51.464;-0.150;2024-02-14T03:53:35;101040.46;;;18.50;45.98
49063;BME280;34876;51.464;-0.150;2024-02-14T03:56:05;101037.51;;;18.59;46.68
49063;BME280;34876;51.464;-0.150;2024-02-14T03:58:35;101041.43;;;18.18;47.31
49063;BME280;34876;51.464;-0.150;2024-02-14T04:01:05;101045.98;;;18.27;46.76
49063;BME280;34876;51.464;-0.150;2024-02-14T04:03:35;101037.00;;;18.22;47.28
49063;BME280;34876;51.464;-0.150;2024-02-14T04:06:05;101045.17;;;18.39;46.44
49063;BME280;34876;51.464;-0.150;2024-02-14T04:08:35;101052.40;;;18.08;51.35
49063;BME280;34876;51.464;-0.150;2024-02-14T04:11:05;101063.35;;;18.48;46.34
49063;BME280;34876;51.464;-0.150;2024-02-14T04:13:34;101063.79;;;18.44;46.52
49063;BME280;34876;51.464;-0.150;2024-02-14T04:16:04;101072.56;;;18.46;46.28
49063;BME280;34876;51.464;-0.150;2024-02-14T04:18:34;101069.13;;;18.45;46.62
49063;BME280;34876;51.464;-0.150;2024-02-14T04:21:03;101063.82;;;18.58;45.98
49063;BME280;34876;51.464;-0.150;2024-02-14T04:23:32;101067.57;;;18.48;46.14
49063;BME280;34876;51.464;-0.150;2024-02-14T04:26:02;101069.80;;;18.48;46.47
49063;BME280;34876;51.464;-0.150;2024-02-14T04:28:38;101066.16;;;18.55;47.05
49063;BME280;34876;51.464;-0.150;2024-02-14T04:31:07;101060.61;;;18.60;45.83
49063;BME280;34876;51.464;-0.150;2024-02-14T04:33:37;101060.61;;;18.64;45.76
49063;BME280;34876;51.464;-0.150;2024-02-14T04:36:07;101059.98;;;18.65;45.71
49063;BME280;34876;51.464;-0.150;2024-02-14T04:38:37;101058.89;;;18.61;45.94
49063;BME280;34876;51.464;-0.150;2024-02-14T04:41:06;101059.29;;;18.64;45.78
49063;BME280;34876;51.464;-0.150;2024-02-14T04:43:36;101054.68;;;18.62;45.85
49063;BME280;34876;51.464;-0.150;2024-02-14T04:46:06;101057.05;;;18.67;45.62
49063;BME280;34876;51.464;-0.150;2024-02-14T04:48:36;101063.40;;;18.44;46.55
49063;BME280;34876;51.464;-0.150;2024-02-14T04:51:05;101068.38;;;18.40;46.82
49063;BME280;34876;51.464;-0.150;2024-02-14T04:53:35;101065.40;;;18.60;46.11
49063;BME280;34876;51.464;-0.150;2024-02-14T04:56:04;101062.80;;;18.65;45.87
49063;BME280;34876;51.464;-0.150;2024-02-14T04:58:34;101064.08;;;18.51;49.44
49063;BME280;34876;51.464;-0.150;2024-02-14T05:01:04;101064.85;;;18.53;46.25
49063;BME280;34876;51.464;-0.150;2024-02-14T05:03:33;101068.95;;;18.52;46.21
49063;BME280;34876;51.464;-0.150;2024-02-14T05:06:03;101072.49;;;18.55;46.30
49063;BME280;34876;51.464;-0.150;2024-02-14T05:08:32;101071.03;;;18.64;45.90
49063;BME280;34876;51.464;-0.150;2024-02-14T05:11:02;101073.72;;;18.67;45.72
49063;BME280;34876;51.464;-0.150;2024-02-14T05:13:30;101063.50;;;18.64;48.06
49063;BME280;34876;51.464;-0.150;2024-02-14T05:16:02;101068.30;;;18.63;46.00
49063;BME280;34876;51.464;-0.150;2024-02-14T05:18:33;101079.92;;;18.33;50.07
49063;BME280;34876;51.464;-0.150;2024-02-14T05:21:05;101081.48;;;18.53;46.21
49063;BME280;34876;51.464;-0.150;2024-02-14T05:23:35;101084.29;;;18.58;46.24
49063;BME280;34876;51.464;-0.150;2024-02-14T05:26:05;101087.46;;;18.50;46.46
49063;BME280;34876;51.464;-0.150;2024-02-14T05:28:35;101091.00;;;18.25;47.14
49063;BME280;34876;51.464;-0.150;2024-02-14T05:31:05;101087.19;;;18.56;47.79
49063;BME280;34876;51.464;-0.150;2024-02-14T05:33:34;101086.78;;;18.62;46.83
49063;BME280;34876;51.464;-0.150;2024-02-14T05:36:04;101089.59;;;18.70;45.84
49063;BME280;34876;51.464;-0.150;2024-02-14T05:38:35;101087.17;;;18.72;45.75
49063;BME280;34876;51.464;-0.150;2024-02-14T05:41:04;101089.53;;;18.33;47.87
49063;BME280;34876;51.464;-0.150;2024-02-14T05:43:32;101087.40;;;18.59;46.26
49063;BME280;34876;51.464;-0.150;2024-02-14T05:46:03;101083.40;;;18.69;45.85
49063;BME280;34876;51.464;-0.150;2024-02-14T05:48:33;101086.10;;;18.33;47.42
49063;BME280;34876;51.464;-0.150;2024-02-14T05:51:02;101086.34;;;18.62;46.27
49063;BME280;34876;51.464;-0.150;2024-02-14T05:53:31;101083.39;;;18.51;46.53
49063;BME280;34876;51.464;-0.150;2024-02-14T05:56:00;101082.37;;;18.46;46.68
49063;BME280;34876;51.464;-0.150;2024-02-14T05:58:29;101076.13;;;18.69;45.93
49063;BME280;34876;51.464;-0.150;2024-02-14T06:00:59;101075.26;;;18.73;45.81
49063;BME280;34876;51.464;-0.150;2024-02-14T06:03:28;101076.96;;;18.45;51.28
49063;BME280;34876;51.464;-0.150;2024-02-14T06:05:57;101075.99;;;18.52;46.61
49063;BME280;34876;51.464;-0.150;2024-02-14T06:08:26;101071.16;;;18.69;46.05
49063;BME280;34876;51.464;-0.150;2024-02-14T06:10:55;101066.29;;;18.72;46.11
49063;BME280;34876;51.464;-0.150;2024-02-14T06:13:25;101066.03;;;18.75;45.90
49063;BME280;34876;51.464;-0.150;2024-02-14T06:15:54;101061.02;;;18.75;45.86
49063;BME280;34876;51.464;-0.150;2024-02-14T06:18:23;101064.25;;;18.75;45.88
49063;BME280;34876;51.464;-0.150;2024-02-14T06:20:53;101067.87;;;18.76;45.76
49063;BME280;34876;51.464;-0.150;2024-02-14T06:23:22;101064.53;;;18.67;47.85
49063;BME280;34876;51.464;-0.150;2024-02-14T06:25:52;101070.09;;;18.75;45.88
49063;BME280;34876;51.464;-0.150;2024-02-14T06:28:23;101073.37;;;18.76;45.88
49063;BME280;34876;51.464;-0.150;2024-02-14T06:30:52;101088.06;;;18.68;46.09
49063;BME280;34876;51.464;-0.150;2024-02-14T06:33:22;101081.20;;;18.73;46.01
49063;BME280;34876;51.464;-0.150;2024-02-14T06:35:52;101082.59;;;18.56;46.59
49063;BME280;34876;51.464;-0.150;2024-02-14T06:38:21;101083.06;;;18.73;45.96
49063;BME280;34876;51.464;-0.150;2024-02-14T06:40:51;101083.97;;;18.76;46.00
49063;BME280;34876;51.464;-0.150;2024-02-14T06:43:21;101085.57;;;18.77;45.91
49063;BME280;34876;51.464;-0.150;2024-02-14T06:45:51;101087.88;;;18.77;45.86
49063;BME280;34876;51.464;-0.150;2024-02-14T06:48:21;101088.14;;;18.33;47.26
49063;BME280;34876;51.464;-0.150;2024-02-14T06:50:51;101086.24;;;18.67;46.13
49063;BME280;34876;51.464;-0.150;2024-02-14T06:53:20;101083.52;;;18.71;46.10
49063;BME280;34876;51.464;-0.150;2024-02-14T06:55:51;101084.85;;;18.74;46.11
49063;BME280;34876;51.464;-0.150;2024-02-14T06:58:21;101088.20;;;18.74;45.94
49063;BME280;34876;51.464;-0.150;2024-02-14T07:00:50;101083.35;;;18.73;45.99
49063;BME280;34876;51.464;-0.150;2024-02-14T07:03:19;101084.25;;;18.76;45.94
49063;BME280;34876;51.464;-0.150;2024-02-14T07:05:48;101088.93;;;18.74;46.06
49063;BME280;34876;51.464;-0.150;2024-02-14T07:08:18;101096.19;;;18.74;46.10
49063;BME280;34876;51.464;-0.150;2024-02-14T07:10:47;101096.81;;;18.73;46.09
49063;BME280;34876;51.464;-0.150;2024-02-14T07:13:16;101099.62;;;18.74;46.05
49063;BME280;34876;51.464;-0.150;2024-02-14T07:15:46;101106.09;;;18.77;45.95
49063;BME280;34876;51.464;-0.150;2024-02-14T07:18:15;101109.47;;;18.75;46.01
49063;BME280;34876;51.464;-0.150;2024-02-14T07:20:45;101107.46;;;18.76;46.11
49063;BME280;34876;51.464;-0.150;2024-02-14T07:23:14;101098.54;;;18.76;45.99
49063;BME280;34876;51.464;-0.150;2024-02-14T07:25:44;101094.46;;;18.74;46.11
49063;BME280;34876;51.464;-0.150;2024-02-14T07:28:13;101096.45;;;18.73;46.17
49063;BME280;34876;51.464;-0.150;2024-02-14T07:30:43;101096.31;;;18.74;46.20
49063;BME280;34876;51.464;-0.150;2024-02-14T07:33:12;101107.77;;;18.76;46.11
49063;BME280;34876;51.464;-0.150;2024-02-14T07:35:41;101108.42;;;18.75;46.13
49063;BME280;34876;51.464;-0.150;2024-02-14T07:38:11;101116.61;;;18.71;46.29
49063;BME280;34876;51.464;-0.150;2024-02-14T07:40:40;101114.90;;;18.76;46.16
49063;BME280;34876;51.464;-0.150;2024-02-14T07:43:10;101122.32;;;18.63;46.58
49063;BME280;34876;51.464;-0.150;2024-02-14T07:45:39;101128.86;;;18.72;46.27
49063;BME280;34876;51.464;-0.150;2024-02-14T07:48:09;101130.65;;;18.59;46.87
49063;BME280;34876;51.464;-0.150;2024-02-14T07:50:38;101123.28;;;18.73;46.44
49063;BME280;34876;51.464;-0.150;2024-02-14T07:53:08;101130.12;;;18.76;46.19
49063;BME280;34876;51.464;-0.150;2024-02-14T07:55:37;101125.49;;;18.74;46.24
49063;BME280;34876;51.464;-0.150;2024-02-14T07:58:06;101115.85;;;18.68;46.49
49063;BME280;34876;51.464;-0.150;2024-02-14T08:00:35;101115.98;;;18.75;46.22
49063;BME280;34876;51.464;-0.150;2024-02-14T08:03:05;101122.10;;;18.75;46.28
49063;BME280;34876;51.464;-0.150;2024-02-14T08:05:35;101130.11;;;18.75;46.42
49063;BME280;34876;51.464;-0.150;2024-02-14T08:08:04;101135.93;;;18.75;46.37
49063;BME280;34876;51.464;-0.150;2024-02-14T08:10:33;101129.23;;;18.77;46.20
49063;BME280;34876;51.464;-0.150;2024-02-14T08:13:02;101138.39;;;18.79;46.31
49063;BME280;34876;51.464;-0.150;2024-02-14T08:15:31;101139.25;;;18.77;46.39
49063;BME280;34876;51.464;-0.150;2024-02-14T08:18:01;101136.87;;;18.74;46.38
49063;BME280;34876;51.464;-0.150;2024-02-14T08:20:30;101143.38;;;18.68;46.69
49063;BME280;34876;51.464;-0.150;2024-02-14T08:22:59;101141.17;;;18.77;46.31
49063;BME280;34876;51.464;-0.150;2024-02-14T08:25:28;101144.05;;;18.80;46.26
49063;BME280;34876;51.464;-0.150;2024-02-14T08:28:00;101146.87;;;18.67;46.68
49063;BME280;34876;51.464;-0.150;2024-02-14T08:30:29;101142.60;;;18.69;50.85
49063;BME280;34876;51.464;-0.150;2024-02-14T08:32:59;101143.00;;;18.63;46.92
49063;BME280;34876;51.464;-0.150;2024-02-14T08:35:28;101143.36;;;18.76;46.43
49063;BME280;34876;51.464;-0.150;2024-02-14T08:37:57;101139.67;;;18.79;46.53
49063;BME280;34876;51.464;-0.150;2024-02-14T08:40:26;101134.92;;;18.77;46.47
49063;BME280;34876;51.464;-0.150;2024-02-14T08:42:56;101130.90;;;18.77;46.41
49063;BME280;34876;51.464;-0.150;2024-02-14T08:45:26;101132.21;;;18.76;46.52
49063;BME280;34876;51.464;-0.150;2024-02-14T08:47:55;101128.12;;;18.62;47.31
49063;BME280;34876;51.464;-0.150;2024-02-14T08:50:24;101128.91;;;18.80;46.47
49063;BME280;34876;51.464;-0.150;2024-02-14T08:52:55;101134.45;;;18.72;48.53
49063;BME280;34876;51.464;-0.150;2024-02-14T08:55:24;101134.56;;;18.77;46.67
49063;BME280;34876;51.464;-0.150;2024-02-14T08:57:54;101134.73;;;18.79;46.54
49063;BME280;34876;51.464;-0.150;2024-02-14T09:00:23;101126.65;;;18.81;46.35
49063;BME280;34876;51.464;-0.150;2024-02-14T09:02:52;101122.57;;;18.82;46.48
49063;BME280;34876;51.464;-0.150;2024-02-14T09:05:21;101127.98;;;18.65;47.54
49063;BME280;34876;51.464;-0.150;2024-02-14T09:07:51;101131.33;;;18.74;46.83
49063;BME280;34876;51.464;-0.150;2024-02-14T09:10:21;101134.19;;;18.77;46.76
49063;BME280;34876;51.464;-0.150;2024-02-14T09:12:51;101139.42;;;18.63;52.23
49063;BME280;34876;51.464;-0.150;2024-02-14T09:15:20;101148.95;;;18.68;49.21
49063;BME280;34876;51.464;-0.150;2024-02-14T09:17:49;101146.49;;;18.81;46.60
49063;BME280;34876;51.464;-0.150;2024-02-14T09:20:19;101145.58;;;18.63;49.18
49063;BME280;34876;51.464;-0.150;2024-02-14T09:22:50;101144.07;;;18.45;48.01
49063;BME280;34876;51.464;-0.150;2024-02-14T09:25:19;101146.75;;;18.79;46.79
49063;BME280;34876;51.464;-0.150;2024-02-14T09:27:49;101138.85;;;18.85;46.47
49063;BME280;34876;51.464;-0.150;2024-02-14T09:30:18;101142.49;;;18.83;46.56
49063;BME280;34876;51.464;-0.150;2024-02-14T09:32:54;101144.79;;;18.56;47.56
49063;BME280;34876;51.464;-0.150;2024-02-14T09:35:27;101145.36;;;18.75;47.16
49063;BME280;34876;51.464;-0.150;2024-02-14T09:37:58;101142.49;;;18.72;46.99
49063;BME280;34876;51.464;-0.150;2024-02-14T09:40:26;101141.37;;;18.84;46.56
49063;BME280;34876;51.464;-0.150;2024-02-14T09:42:56;101143.38;;;18.83;46.80
49063;BME280;34876;51.464;-0.150;2024-02-14T09:45:30;101148.27;;;18.87;46.51
49063;BME280;34876;51.464;-0.150;2024-02-14T09:48:08;101156.90;;;18.85;46.51
49063;BME280;34876;51.464;-0.150;2024-02-14T09:50:38;101161.04;;;18.81;46.80
49063;BME280;34876;51.464;-0.150;2024-02-14T09:53:07;101164.93;;;18.84;46.66
49063;BME280;34876;51.464;-0.150;2024-02-14T09:55:38;101169.28;;;18.86;46.82
49063;BME280;34876;51.464;-0.150;2024-02-14T09:58:08;101175.11;;;18.74;47.30
49063;BME280;34876;51.464;-0.150;2024-02-14T10:00:37;101179.10;;;18.71;47.26
49063;BME280;34876;51.464;-0.150;2024-02-14T10:03:07;101176.91;;;18.80;47.19
49063;BME280;34876;51.464;-0.150;2024-02-14T10:05:37;101184.43;;;18.85;46.65
49063;BME280;34876;51.464;-0.150;2024-02-14T10:08:07;101185.50;;;18.91;46.57
49063;BME280;34876;51.464;-0.150;2024-02-14T10:10:35;101176.26;;;18.90;46.55
49063;BME280;34876;51.464;-0.150;2024-02-14T10:13:05;101169.50;;;18.87;46.75
49063;BME280;34876;51.464;-0.150;2024-02-14T10:15:34;101166.50;;;18.89;46.58
49063;BME280;34876;51.464;-0.150;2024-02-14T10:18:05;101173.38;;;18.90;46.64
49063;BME280;34876;51.464;-0.150;2024-02-14T10:20:35;101172.06;;;18.85;46.75
49063;BME280;34876;51.464;-0.150;2024-02-14T10:23:05;101176.32;;;18.81;46.92
49063;BME280;34876;51.464;-0.150;2024-02-14T10:25:35;101176.48;;;18.90;46.63
49063;BME280;34876;51.464;-0.150;2024-02-14T10:28:06;101175.85;;;18.88;46.73
49063;BME280;34876;51.464;-0.150;2024-02-14T10:30:36;101172.85;;;18.91;46.67
49063;BME280;34876;51.464;-0.150;2024-02-14T10:33:05;101177.85;;;18.92;46.85
49063;BME280;34876;51.464;-0.150;2024-02-14T10:35:35;101180.41;;;18.84;47.04
49063;BME280;34876;51.464;-0.150;2024-02-14T10:38:08;101181.59;;;18.92;46.81
49063;BME280;34876;51.464;-0.150;2024-02-14T10:40:38;101185.36;;;18.88;46.76
49063;BME280;34876;51.464;-0.150;2024-02-14T10:43:09;101190.67;;;18.85;46.99
49063;BME280;34876;51.464;-0.150;2024-02-14T10:45:39;101195.56;;;18.44;48.40
49063;BME280;34876;51.464;-0.150;2024-02-14T10:48:11;101192.10;;;18.66;48.04
49063;BME280;34876;51.464;-0.150;2024-02-14T10:50:41;101196.28;;;18.76;47.42
49063;BME280;34876;51.464;-0.150;2024-02-14T10:53:13;101195.33;;;18.66;47.95
49063;BME280;34876;51.464;-0.150;2024-02-14T10:55:46;101202.46;;;18.75;48.70
49063;BME280;34876;51.464;-0.150;2024-02-14T10:58:17;101202.78;;;18.91;46.95
49063;BME280;34876;51.464;-0.150;2024-02-14T11:00:47;101202.96;;;18.83;47.29
49063;BME280;34876;51.464;-0.150;2024-02-14T11:03:19;101194.50;;;18.87;47.05
49063;BME280;34876;51.464;-0.150;2024-02-14T11:05:49;101194.73;;;18.76;47.48
49063;BME280;34876;51.464;-0.150;2024-02-14T11:08:19;101197.03;;;18.95;46.88
49063;BME280;34876;51.464;-0.150;2024-02-14T11:10:54;101198.61;;;18.73;51.02
49063;BME280;34876;51.464;-0.150;2024-02-14T11:13:25;101197.49;;;18.81;47.42
49063;BME280;34876;51.464;-0.150;2024-02-14T11:15:56;101199.90;;;18.93;46.99
49063;BME280;34876;51.464;-0.150;2024-02-14T11:18:26;101196.14;;;18.77;47.60
49063;BME280;34876;51.464;-0.150;2024-02-14T11:20:56;101207.35;;;18.64;47.95
49063;BME280;34876;51.464;-0.150;2024-02-14T11:23:29;101204.61;;;18.65;47.96
49063;BME280;34876;51.464;-0.150;2024-02-14T11:26:00;101213.79;;;18.90;47.13
49063;BME280;34876;51.464;-0.150;2024-02-14T11:28:29;101213.29;;;18.53;50.46
49063;BME280;34876;51.464;-0.150;2024-02-14T11:31:01;101214.27;;;18.69;51.08
49063;BME280;34876;51.464;-0.150;2024-02-14T11:33:30;101213.54;;;18.69;48.11
49063;BME280;34876;51.464;-0.150;2024-02-14T11:36:07;101220.31;;;18.82;47.59
49063;BME280;34876;51.464;-0.150;2024-02-14T11:38:36;101218.18;;;18.82;47.59
49063;BME280;34876;51.464;-0.150;2024-02-14T11:41:06;101220.15;;;18.90;49.52
49063;BME280;34876;51.464;-0.150;2024-02-14T11:43:36;101222.91;;;18.60;53.30
49063;BME280;34876;51.464;-0.150;2024-02-14T11:46:05;101227.29;;;18.82;47.80
49063;BME280;34876;51.464;-0.150;2024-02-14T11:48:34;101222.18;;;18.89;47.77
49063;BME280;34876;51.464;-0.150;2024-02-14T11:51:04;101220.69;;;18.80;47.90
49063;BME280;34876;51.464;-0.150;2024-02-14T11:53:35;101229.16;;;18.76;48.18
49063;BME280;34876;51.464;-0.150;2024-02-14T11:56:05;101229.49;;;18.62;48.26
49063;BME280;34876;51.464;-0.150;2024-02-14T11:58:35;101223.16;;;18.81;47.86
49063;BME280;34876;51.464;-0.150;2024-02-14T12:01:05;101223.35;;;18.69;48.21
49063;BME280;34876;51.464;-0.150;2024-02-14T12:03:34;101222.38;;;18.39;49.24
49063;BME280;34876;51.464;-0.150;2024-02-14T12:06:04;101219.33;;;18.64;53.08
49063;BME280;34876;51.464;-0.150;2024-02-14T12:08:34;101219.66;;;18.32;49.40
49063;BME280;34876;51.464;-0.150;2024-02-14T12:11:03;101215.20;;;18.65;48.40
49063;BME280;34876;51.464;-0.150;2024-02-14T12:13:33;101209.39;;;18.95;47.49
49063;BME280;34876;51.464;-0.150;2024-02-14T12:16:02;101212.22;;;18.65;52.51
49063;BME280;34876;51.464;-0.150;2024-02-14T12:18:32;101215.16;;;18.61;48.68
49063;BME280;34876;51.464;-0.150;2024-02-14T12:21:05;101215.91;;;18.62;49.19
49063;BME280;34876;51.464;-0.150;2024-02-14T12:23:37;101215.67;;;18.92;50.53
49063;BME280;34876;51.464;-0.150;2024-02-14T12:26:07;101223.16;;;18.94;47.54
49063;BME280;34876;51.464;-0.150;2024-02-14T12:28:36;101220.37;;;18.51;53.72
49063;BME280;34876;51.464;-0.150;2024-02-14T12:31:05;101223.42;;;18.63;49.18
49063;BME280;34876;51.464;-0.150;2024-02-14T12:33:40;101229.49;;;18.57;50.72
49063;BME280;34876;51.464;-0.150;2024-02-14T12:36:10;101226.77;;;18.54;48.79
49063;BME280;34876;51.464;-0.150;2024-02-14T12:38:39;101229.06;;;18.65;48.89
49063;BME280;34876;51.464;-0.150;2024-02-14T12:41:08;101227.46;;;18.56;48.83
49063;BME280;34876;51.464;-0.150;2024-02-14T12:43:41;101220.85;;;18.81;48.06
49063;BME280;34876;51.464;-0.150;2024-02-14T12:46:11;101223.96;;;18.90;47.68
49063;BME280;34876;51.464;-0.150;2024-02-14T12:48:41;101224.89;;;18.88;49.07
49063;BME280;34876;51.464;-0.150;2024-02-14T12:51:10;101229.73;;;18.78;48.19
49063;BME280;34876;51.464;-0.150;2024-02-14T12:53:39;101226.05;;;18.90;47.72
49063;BME280;34876;51.464;-0.150;2024-02-14T12:56:10;101229.80;;;18.64;49.65